»·PEaware :: USC81 KSBA-KLAS

USC81 :: KSBA-KLAS

FLIGHT INFORMATION

Flight Status: Arrived
Operator: Unknown
More flights by this operator :: More flights under this callsign
Pilot: Andy P. (22680)
Aircraft: GATES LEARJET LEARJET 35/36
(LJ35)
More flights by this aircraft type
Origin: KSBA Santa Barbara Mun
United States
Destination: KLAS McCarran Intl
United States
More flights between these airports :: More routes between these airports
Route: MISHN3 NNAVY MISEN KEPEC6
File this flight plan on PilotEdge
Remarks:
Altitude:
(Current/Filed)
29,000ft
Speed:
(Current/Filed)
465kts
Departed: 15-Oct-20 02:50 PM
Arrived: 15-Oct-20 03:38 PM
Distance/Time
Traveled:
251nm/0:48
Distance/Time
To Go:
Arrived

Flight Plot

Page will automatically refresh every two minutes.

Flight plan parsing failed; only flown route is shown


Map Options




Map Legend


Flown Route
Filed Route
Departure Airport
Arrival Airport
Navaid (VOR, NDB)
Fix

Horizontal Profiles

Position Reports

Time Latitude Longitude Heading Altitude Ground
Speed
15-Oct-20 14:25 34.432087 -119.833427 163 13ft 0kts
15-Oct-20 14:26 34.432087 -119.833427 163 13ft 0kts
15-Oct-20 14:27 34.432087 -119.833427 163 13ft 0kts
15-Oct-20 14:28 34.432087 -119.833427 163 13ft 0kts
15-Oct-20 14:29 34.432087 -119.833427 163 13ft 0kts
15-Oct-20 14:30 34.432087 -119.833427 163 13ft 0kts
15-Oct-20 14:31 34.432087 -119.833427 163 13ft 0kts
15-Oct-20 14:32 34.432087 -119.833427 163 13ft 0kts
15-Oct-20 14:33 34.432087 -119.833427 163 13ft 0kts
15-Oct-20 14:34 34.432087 -119.833427 163 13ft 0kts
15-Oct-20 14:35 34.432087 -119.833427 163 13ft 0kts
15-Oct-20 14:36 34.432087 -119.833427 163 13ft 0kts
15-Oct-20 14:37 34.432087 -119.833427 163 13ft 0kts
15-Oct-20 14:38 34.432087 -119.833427 163 13ft 0kts
15-Oct-20 14:39 34.432087 -119.833427 163 13ft 0kts
15-Oct-20 14:40 34.432087 -119.833427 163 13ft 0kts
15-Oct-20 14:41 34.432087 -119.833427 163 13ft 0kts
15-Oct-20 14:41 34.432087 -119.833427 163 13ft 0kts
15-Oct-20 14:43 34.432087 -119.833427 163 13ft 0kts
15-Oct-20 14:43 34.432087 -119.833427 163 13ft 0kts
15-Oct-20 14:45 34.432087 -119.833427 163 13ft 0kts
15-Oct-20 14:45 34.432087 -119.833427 163 13ft 0kts
15-Oct-20 14:47 34.432085 -119.833427 163 13ft 0kts
15-Oct-20 14:47 34.432187 -119.834696 251 13ft 10kts
15-Oct-20 14:48 34.428873 -119.834612 162 13ft 4kts
15-Oct-20 14:49 34.427815 -119.839114 267 13ft 78kts
15-Oct-20 14:50 34.427298 -119.891153 268 1065ft 180kts
15-Oct-20 14:51 34.398411 -119.931252 187 2542ft 193kts
15-Oct-20 14:52 34.340027 -119.930393 144 3006ft 242kts
15-Oct-20 14:53 34.290480 -119.868680 137 4762ft 267kts
15-Oct-20 14:54 34.236603 -119.804582 137 6705ft 277kts
15-Oct-20 14:55 34.201863 -119.720939 93 10785ft 300kts
15-Oct-20 14:56 34.196959 -119.620291 93 14857ft 303kts
15-Oct-20 14:57 34.195712 -119.527097 86 17868ft 316kts
15-Oct-20 14:58 34.199658 -119.429186 87 20664ft 332kts
15-Oct-20 14:59 34.204124 -119.315652 87 23218ft 347kts
15-Oct-20 15:00 34.208238 -119.208537 87 25225ft 359kts
15-Oct-20 15:01 34.214964 -119.086558 81 27405ft 368kts
15-Oct-20 15:02 34.238767 -118.963476 77 28930ft 391kts
15-Oct-20 15:03 34.265741 -118.828187 77 28999ft 436kts
15-Oct-20 15:04 34.294953 -118.680824 77 29011ft 464kts
15-Oct-20 15:05 34.325153 -118.527400 77 28997ft 469kts
15-Oct-20 15:06 34.355018 -118.374648 77 29033ft 467kts
15-Oct-20 15:07 34.384658 -118.221928 77 29066ft 466kts
15-Oct-20 15:08 34.414658 -118.067761 75 29062ft 471kts
15-Oct-20 15:09 34.463749 -117.919915 65 29088ft 475kts
15-Oct-20 15:10 34.520117 -117.774719 65 29097ft 476kts
15-Oct-20 15:11 34.576389 -117.629266 65 29121ft 476kts
15-Oct-20 15:12 34.632418 -117.483821 65 29165ft 477kts
15-Oct-20 15:13 34.688335 -117.338003 65 29170ft 472kts
15-Oct-20 15:14 34.743601 -117.193250 65 29185ft 470kts
15-Oct-20 15:15 34.798491 -117.048845 65 29161ft 471kts
15-Oct-20 15:16 34.853324 -116.903952 65 29118ft 472kts
15-Oct-20 15:17 34.908704 -116.758519 62 28838ft 473kts
15-Oct-20 15:18 34.979152 -116.622895 55 26939ft 478kts
15-Oct-20 15:19 35.055203 -116.487635 55 25112ft 485kts
15-Oct-20 15:20 35.138407 -116.358943 45 23268ft 476kts
15-Oct-20 15:21 35.229968 -116.243936 45 21517ft 467kts
15-Oct-20 15:22 35.318037 -116.133173 44 19833ft 443kts
15-Oct-20 15:23 35.402714 -116.026337 44 18221ft 432kts
15-Oct-20 15:24 35.485933 -115.921034 44 16626ft 429kts
15-Oct-20 15:25 35.567920 -115.816911 44 15052ft 410kts
15-Oct-20 15:26 35.642690 -115.721666 43 13608ft 333kts
15-Oct-20 15:27 35.699420 -115.648781 44 13015ft 272kts
15-Oct-20 15:28 35.754364 -115.579639 42 12306ft 285kts
15-Oct-20 15:29 35.806405 -115.513085 43 10765ft 255kts
15-Oct-20 15:30 35.855545 -115.450838 43 9225ft 252kts
15-Oct-20 15:31 35.903081 -115.391856 43 8067ft 232kts
15-Oct-20 15:32 35.953054 -115.339666 35 6628ft 237kts
15-Oct-20 15:33 36.003888 -115.293970 35 5249ft 217kts
15-Oct-20 15:34 36.052119 -115.249422 40 3918ft 207kts
15-Oct-20 15:35 36.072888 -115.201234 88 2839ft 153kts
15-Oct-20 15:36 36.073663 -115.154672 89 2184ft 97kts
15-Oct-20 15:37 36.074363 -115.145233 299 2184ft 15kts
15-Oct-20 15:38 36.074965 -115.146310 320 2184ft 8kts
15-Oct-20 15:39 36.077564 -115.146580 358 2184ft 0kts
15-Oct-20 15:40 36.078374 -115.144355 96 2184ft 21kts
15-Oct-20 15:41 36.078280 -115.135094 90 2184ft 34kts
15-Oct-20 15:42 36.079044 -115.126914 284 2184ft 12kts
15-Oct-20 15:43 36.080008 -115.126850 90 2184ft 0kts

Navigation Log

Ident Type
Flight plan parsing failed, navigation log unavailable